Avare, Brazil
Current Conditions -  °F | °C
As of 8:20 AM on Tuesday 27 Jan 2015 (Local Time) from SBBU Reporting Station
Broken Clouds Broken Clouds  
Wind Chill: 72°   Ceiling: 700
Heat Index: 72°   Visibility: 6mi
Dew Point: 72°   Wind: 8mph
Humidity: 100%   Direction: 310°NW
Pressure: 30.03"   Gusts: NA
Location:  23.11°S, 48.93°W
Report Text: SBBU 271020Z 31007KT 9999 BKN007 22/22 Q1017
Loading
Personal Weather Stations






























Interactive Weather Map New forecast layout! Learn more

10-Day Weather Forecast

Advertisements
Track Severe Weather on mobile